Latest Weather Observations for Fitzroy Crossing

IDW60801

Issued at 8:05 am WST Tuesday 23 September 2014 (issued every 30 minutes, with the page automatically refreshed every 10 minutes)

About weather observations | Map of weather stations | Latest weather observations for WA | Other Formats
Station Details ID: 003093 Name: FITZROY CROSSING AERO Lat: -18.18 Lon: 125.56 Height: 114.5 m
Data from the previous 72 hours. | See also: Recent months at Fitzroy Crossing
Date/Time
WST
Temp
°C
App
Temp
°C
Dew
Point
Rel
Hum
%
Delta-T
°C
Wind Press
QNH
hPa
Press
MSL
hPa
Rain
since 9 am
mm
Dir
 
Spd
km/h
Gust
km/h
Spd
kts
Gust
kts
23/08:00am 26.6 19.6 -0.4 17 12.5 SSE 26 37 14 20 1016.9 1016.2 0.0
23/07:30am 26.0 18.9 -0.9 17 12.3 SSE 26 39 14 21 1016.5 1015.8 0.0
23/07:00am 25.2 19.6 0.0 19 11.7 S 19 26 10 14 1016.2 1015.5 0.0
23/06:30am 24.4 18.8 0.0 20 11.2 S 19 24 10 13 1015.7 1015.0 0.0
23/06:00am 23.8 19.0 0.2 21 10.8 S 15 20 8 11 1015.2 1014.5 0.0
23/05:30am 24.1 19.1 1.1 22 10.8 S 17 22 9 12 1014.8 1014.1 0.0
23/05:00am 24.2 19.7 4.0 27 10.0 S 17 26 9 14 1014.2 1013.5 0.0
23/04:30am 24.4 21.0 5.7 30 9.6 S 13 20 7 11 1013.5 1012.9 0.0
23/04:00am 24.6 20.8 5.9 30 9.6 S 15 19 8 10 1013.1 1012.5 0.0
23/03:30am 23.8 22.2 8.2 37 8.3 SSE 6 19 3 10 1012.6 1011.9 0.0
23/03:00am 23.1 23.4 10.9 46 6.8 CALM 0 0 0 0 1012.1 1011.4 0.0
23/02:30am 23.3 22.0 10.0 43 7.3 WNW 7 9 4 5 1011.5 1010.8 0.0
23/02:00am 23.0 20.6 7.1 36 8.3 NNW 9 11 5 6 1011.2 1010.5 0.0
23/01:30am 25.6 23.2 5.2 27 10.4 W 7 11 4 6 1011.0 1010.3 0.0
23/01:00am 24.3 21.4 4.6 28 9.9 WNW 9 11 5 6 1011.2 1010.5 0.0
23/12:30am 26.0 23.0 3.9 24 11.1 W 9 13 5 7 1011.2 1010.5 0.0
23/12:00am 26.2 22.9 4.6 25 11.0 W 11 17 6 9 1011.4 1010.7 0.0
 
Date/Time
WST
Temp
°C
App
Temp
°C
Dew
Point
Rel
Hum
%
Delta-T
°C
Wind Press
QNH
hPa
Press
MSL
hPa
Rain
since 9 am
mm
Dir
 
Spd
km/h
Gust
km/h
Spd
kts
Gust
kts
22/11:30pm 25.7 22.4 4.8 26 10.6 NW 11 15 6 8 1011.5 1010.8 0.0
22/11:00pm 26.4 22.8 3.0 22 11.6 NW 11 15 6 8 1011.6 1010.9 0.0
22/10:30pm 28.2 24.5 2.4 19 12.8 WNW 11 13 6 7 1011.4 1010.7 0.0
22/10:00pm 30.2 24.8 2.5 17 13.9 W 20 22 11 12 1011.4 1010.7 0.0
22/09:30pm 30.5 26.3 1.9 16 14.2 WNW 13 15 7 8 1011.3 1010.6 0.0
22/09:00pm 32.6 25.9 1.7 14 15.5 WSW 26 33 14 18 1011.1 1010.4 0.0
22/08:30pm 32.3 26.9 1.4 14 15.4 W 19 24 10 13 1010.9 1010.2 0.0
22/08:00pm 32.2 27.7 2.3 15 15.2 W 15 20 8 11 1010.7 1010.0 0.0
22/07:30pm 32.2 27.7 2.3 15 15.1 W 15 15 8 8 1010.4 1009.7 0.0
22/07:00pm 33.2 28.3 2.1 14 15.8 W 17 20 9 11 1010.1 1009.4 0.0
22/06:30pm 33.5 29.2 1.3 13 16.2 WSW 13 15 7 8 1009.8 1009.1 0.0
22/06:00pm 35.0 30.4 1.4 12 17.1 W 15 19 8 10 1009.4 1008.7 0.0
22/05:30pm 36.7 31.1 0.1 10 18.4 WSW 19 22 10 12 1008.9 1008.2 0.0
22/05:00pm 37.9 32.8 1.0 10 19.0 WNW 17 20 9 11 1008.7 1008.0 0.0
22/04:30pm 38.4 33.1 2.8 11 18.8 W 20 30 11 16 1008.5 1007.8 0.0
22/04:00pm 39.0 33.7 1.9 10 19.5 W 19 30 10 16 1008.5 1007.8 0.0
22/03:30pm 39.1 33.6 1.9 10 19.5 W 20 32 11 17 1008.5 1007.8 0.0
22/03:00pm 39.4 33.6 2.2 10 19.6 W 22 35 12 19 1008.6 1007.9 0.0
22/02:30pm 39.8 34.6 3.8 11 19.5 W 20 35 11 19 1008.6 1007.9 0.0
22/02:00pm 39.1 33.3 4.5 12 18.9 WNW 24 35 13 19 1008.8 1008.1 0.0
22/01:30pm 38.8 36.1 5.4 13 18.4 NW 9 11 5 6 1009.1 1008.4 0.0
22/01:00pm 39.3 34.2 5.8 13 18.7 NW 22 35 12 19 1009.4 1008.7 0.0
22/12:30pm 39.2 34.6 5.7 13 18.6 NW 19 35 10 19 1010.0 1009.3 0.0
22/12:00pm 37.5 34.4 7.4 16 17.0 NNW 13 20 7 11 1010.5 1009.8 0.0
22/11:30am 37.4 34.4 9.1 18 16.4 NNE 15 26 8 14 1011.0 1010.3 0.0
22/11:00am 36.6 32.8 9.2 19 15.8 N 19 30 10 16 1011.6 1010.9 0.0
22/10:30am 35.3 32.2 10.4 22 14.6 NNE 17 24 9 13 1012.0 1011.3 0.0
22/10:00am 35.0 32.2 11.4 24 14.0 N 17 26 9 14 1012.7 1012.0 0.0
22/09:30am 33.8 30.7 11.6 26 13.1 NNE 19 32 10 17 1013.2 1012.6 0.0
22/09:00am 33.1 30.5 12.1 27 12.5 N 17 26 9 14 1013.5 1012.9 0.0
22/08:30am 32.0 29.6 12.8 31 11.5 N 17 26 9 14 1013.7 1013.1 0.0
22/08:00am 31.0 28.4 13.3 34 10.6 N 19 22 10 12 1013.9 1013.2 0.0
22/07:30am 30.4 28.5 14.1 37 9.9 N 17 22 9 12 1013.7 1013.1 0.0
22/07:00am 28.4 26.8 13.9 41 8.7 N 15 19 8 10 1013.6 1013.0 0.0
22/06:30am 26.4 24.8 12.8 43 8.0 N 13 15 7 8 1013.4 1012.8 0.0
22/06:00am 25.7 24.9 12.9 45 7.5 N 9 13 5 7 1013.1 1012.5 0.0
22/05:30am 25.2 23.7 13.1 47 7.1 NNE 13 15 7 8 1012.6 1011.9 0.0
22/05:00am 24.9 24.3 12.2 45 7.3 NNE 7 13 4 7 1012.3 1011.6 0.0
22/04:30am 24.4 23.2 11.7 45 7.2 ENE 9 11 5 6 1012.0 1011.3 0.0
22/04:00am 24.2 22.8 10.8 43 7.5 NW 9 11 5 6 1011.5 1010.8 0.0
22/03:30am 25.8 23.8 11.6 41 8.1 N 13 15 7 8 1011.4 1010.7 0.0
22/03:00am 25.5 24.3 12.7 45 7.4 N 11 17 6 9 1011.5 1010.8 0.0
22/02:30am 25.7 23.3 12.5 44 7.7 N 17 22 9 12 1011.3 1010.6 0.0
22/02:00am 26.2 24.8 12.3 42 8.1 N 11 13 6 7 1011.4 1010.7 0.0
22/01:30am 26.9 25.2 12.5 40 8.4 NE 13 19 7 10 1012.1 1011.4 0.0
22/01:00am 28.1 28.9 13.6 41 8.7 NNE 2 - 1 - - 1011.1 -
22/12:30am 27.4 26.3 11.8 38 9.0 W 9 19 5 10 1011.8 1011.1 0.0
22/12:00am 28.1 26.9 11.6 36 9.5 WNW 9 11 5 6 1011.6 1010.9 0.0
 
Date/Time
WST
Temp
°C
App
Temp
°C
Dew
Point
Rel
Hum
%
Delta-T
°C
Wind Press
QNH
hPa
Press
MSL
hPa
Rain
since 9 am
mm
Dir
 
Spd
km/h
Gust
km/h
Spd
kts
Gust
kts
21/11:30pm 28.6 26.5 11.2 34 10.0 WNW 13 15 7 8 1011.9 1011.2 0.0
21/11:00pm 28.7 26.0 10.4 32 10.4 NW 15 19 8 10 1012.2 1011.5 0.0
21/10:30pm 28.9 25.7 6.9 25 11.8 NNW 13 17 7 9 1012.3 1011.6 0.0
21/10:00pm 31.8 28.1 6.1 20 13.8 WNW 15 19 8 10 1012.3 1011.6 0.0
21/09:30pm 31.5 29.1 4.3 18 14.2 NNE 6 22 3 12 1012.1 1011.4 0.0
21/09:00pm 32.4 30.0 4.2 17 14.8 NE 6 9 3 5 1011.9 1011.2 0.0
21/08:30pm 32.1 30.8 4.0 17 14.6 CALM 0 0 0 0 1011.9 1011.2 0.0
21/08:00pm 32.7 31.5 4.5 17 14.9 CALM 0 0 0 0 1011.8 1011.1 0.0
21/07:30pm 31.7 29.2 4.5 18 14.2 NNE 7 9 4 5 1011.6 1010.9 0.0
21/07:00pm 34.5 32.8 4.1 15 16.1 E 2 7 1 4 1011.2 1010.5 0.0
21/06:30pm 33.6 32.3 4.3 16 15.5 CALM 0 0 0 0 1010.9 1010.2 0.0
21/06:00pm 34.2 32.9 3.9 15 16.0 CALM 0 0 0 0 1010.6 1009.9 0.0
21/05:30pm 36.4 34.2 3.6 13 17.4 NE 4 6 2 3 1010.3 1009.6 0.0
21/05:00pm 37.7 34.4 2.2 11 18.6 NNE 9 13 5 7 1010.0 1009.3 0.0
21/04:30pm 38.9 36.8 1.8 10 19.4 NW 2 9 1 5 1009.8 1009.1 0.0
21/04:00pm 38.9 35.7 3.1 11 19.1 NNE 9 17 5 9 1009.7 1009.0 0.0
21/03:30pm 39.1 34.4 3.3 11 19.2 N 17 26 9 14 1009.7 1009.0 0.0
21/03:00pm 39.0 34.3 3.2 11 19.1 N 17 28 9 15 1009.9 1009.2 0.0
21/02:30pm 40.1 34.7 2.7 10 19.9 NNW 20 28 11 15 1010.0 1009.3 0.0
21/02:00pm 39.6 36.5 3.7 11 19.4 WNW 9 19 5 10 1010.3 1009.6 0.0
21/01:30pm 38.6 35.9 2.9 11 18.9 E 6 11 3 6 1010.6 1009.9 0.0
21/01:00pm 39.5 35.9 4.8 12 19.0 NE 13 20 7 11 1011.0 1010.3 0.0
21/12:30pm 38.9 35.6 4.4 12 18.7 N 11 22 6 12 1011.5 1010.8 0.0
21/12:00pm 39.3 37.4 8.9 16 17.7 NW 9 24 5 13 1012.1 1011.4 0.0
21/11:30am 37.5 36.6 11.5 21 15.6 NW 7 11 4 6 1012.7 1012.0 0.0
21/11:00am 36.5 35.6 11.3 22 15.0 SSW 7 13 4 7 1013.4 1012.8 0.0
21/10:30am 35.6 34.3 12.5 24 14.0 SE 11 22 6 12 1014.2 1013.5 0.0
21/10:00am 34.6 33.8 12.9 27 13.1 SW 9 19 5 10 1014.6 1013.9 0.0
21/09:30am 34.2 34.0 13.1 28 12.8 W 6 13 3 7 1015.0 1014.3 0.0
21/09:00am 33.4 33.0 12.9 28 12.4 SE 7 13 4 7 1015.3 1014.6 0.0
21/08:30am 33.2 33.1 13.8 31 11.8 S 7 15 4 8 1015.5 1014.8 0.0
21/08:00am 31.5 29.0 14.2 35 10.6 NW 20 28 11 15 1014.6 1013.9 0.0
21/07:30am 29.5 27.7 16.0 44 8.4 NW 20 26 11 14 1014.4 1013.7 0.0
21/07:00am 27.0 25.8 16.0 51 6.8 NW 17 20 9 11 1014.3 1013.6 0.0
21/06:30am 24.2 22.6 15.1 56 5.5 NNW 17 20 9 11 1014.1 1013.4 0.0
21/06:00am 22.7 21.7 14.5 60 4.9 NNW 13 17 7 9 1013.9 1013.2 0.0
21/05:30am 23.6 23.6 15.1 59 5.1 NW 9 11 5 6 1013.6 1013.0 0.0
21/05:00am 23.0 22.4 14.6 59 5.0 WNW 11 13 6 7 1013.4 1012.8 0.0
21/04:30am 23.4 23.7 14.9 59 5.1 NNW 7 11 4 6 1012.9 1012.3 0.0
21/04:00am 23.1 21.8 14.7 59 5.0 NNW 15 17 8 9 1012.4 1011.7 0.0
21/03:30am 23.9 23.4 14.9 57 5.4 NW 11 15 6 8 1012.0 1011.3 0.0
21/03:00am 25.4 24.3 15.4 54 6.1 N 15 20 8 11 1012.0 1011.3 0.0
21/02:30am 25.7 25.0 14.2 49 6.9 N 11 17 6 9 1012.3 1011.6 0.0
21/02:00am 23.0 20.8 9.4 42 7.4 NW 11 15 6 8 1011.7 1011.0 0.0
21/01:30am 24.5 22.4 9.6 39 8.2 NNW 11 13 6 7 1012.1 1011.4 0.0
21/01:00am 25.9 22.6 8.0 32 9.6 NW 15 17 8 9 1012.1 1011.4 0.0
21/12:30am 26.1 21.8 5.1 26 10.7 N 17 19 9 10 1012.3 1011.6 0.0
21/12:00am 25.2 22.4 6.9 31 9.6 S 11 15 6 8 1011.9 1011.2 0.0
 
Date/Time
WST
Temp
°C
App
Temp
°C
Dew
Point
Rel
Hum
%
Delta-T
°C
Wind Press
QNH
hPa
Press
MSL
hPa
Rain
since 9 am
mm
Dir
 
Spd
km/h
Gust
km/h
Spd
kts
Gust
kts
20/11:30pm 25.3 24.3 5.5 28 10.2 CALM 0 0 0 0 1012.0 1011.3 0.0
20/11:00pm 26.2 23.9 4.6 25 11.0 WSW 6 11 3 6 1012.4 1011.7 0.0
20/10:30pm 26.9 24.9 6.3 27 10.8 E 6 9 3 5 1012.5 1011.8 0.0
20/10:00pm 27.9 27.1 6.6 26 11.3 CALM 0 9 0 5 1012.6 1011.9 0.0
20/09:30pm 29.3 26.7 4.0 20 12.9 ESE 7 13 4 7 1012.7 1012.0 0.0
20/09:00pm 30.5 28.1 4.3 19 13.6 SSE 6 15 3 8 1012.7 1012.0 0.0
20/08:30pm 31.1 29.6 3.2 17 14.2 CALM 0 0 0 0 1012.6 1011.9 0.0
20/08:00pm 31.2 29.8 3.3 17 14.3 CALM 0 0 0 0 1012.6 1011.9 0.0
20/07:30pm 30.9 29.5 3.8 18 14.0 CALM 0 0 0 0 1012.2 1011.5 0.0
20/07:00pm 31.0 29.2 1.4 15 14.7 CALM 0 0 0 0 1011.8 1011.1 0.0
20/06:30pm 33.0 30.5 3.9 16 15.2 S 6 9 3 5 1011.4 1010.7 0.0
20/06:00pm 34.3 32.8 3.0 14 16.2 CALM 0 0 0 0 1011.1 1010.4 0.0
20/05:30pm 35.9 34.2 2.1 12 17.4 CALM 0 0 0 0 1010.7 1010.0 0.0
20/05:00pm 37.5 34.5 2.1 11 18.5 SSE 7 9 4 5 1010.4 1009.7 0.0
20/04:30pm 38.1 35.0 1.2 10 19.0 SSE 7 13 4 7 1010.3 1009.6 0.0
20/04:00pm 38.3 35.2 1.3 10 19.1 SSE 7 11 4 6 1010.3 1009.6 0.0
20/03:30pm 38.2 34.3 1.3 10 19.1 E 11 17 6 9 1010.3 1009.6 0.0
20/03:00pm 38.9 34.7 1.8 10 19.4 ENE 13 26 7 14 1010.1 1009.4 0.0
20/02:30pm 39.1 35.3 1.9 10 19.5 ENE 11 19 6 10 1010.1 1009.4 0.0
20/02:00pm 39.4 34.3 0.7 9 20.0 SE 17 24 9 13 1010.3 1009.6 0.0
20/01:30pm 38.9 35.9 1.8 10 19.4 S 7 13 4 7 1010.8 1010.1 0.0
20/01:00pm 38.6 34.0 1.6 10 19.3 NNW 15 26 8 14 1011.2 1010.5 0.0
20/12:30pm 38.5 34.9 2.8 11 18.9 NW 11 22 6 12 1011.6 1010.9 0.0
20/12:00pm 38.2 33.0 2.6 11 18.8 N 19 24 10 13 1012.2 1011.5 0.0
20/11:30am 36.8 34.5 4.9 14 17.3 N 6 15 3 8 1012.8 1012.2 0.0
20/11:00am 36.2 34.6 6.4 16 16.5 SE 4 9 2 5 1013.3 1012.7 0.0
20/10:30am 35.2 33.8 7.3 18 15.6 NNW 4 11 2 6 1014.0 1013.3 0.0
20/10:00am 33.4 31.5 7.4 20 14.4 W 7 11 4 6 1014.4 1013.7 0.0
20/09:30am 32.5 30.9 8.0 22 13.6 W 6 11 3 6 1014.7 1014.0 0.0
20/09:00am 31.8 30.2 8.7 24 13.0 W 7 13 4 7 1015.0 1014.3 0.0
20/08:30am 30.6 28.7 8.9 26 12.1 W 9 13 5 7 1015.0 1014.3 0.0

Other Formats:

Comma delimited format used in spreadsheet applications
http://www.bom.gov.au/fwo/IDW60801/IDW60801.94206.axf

JavaScript Object Notation format (JSON) in row-major order
http://www.bom.gov.au/fwo/IDW60801/IDW60801.94206.json